地図

経路データ

SID SEASON NUMBER BASIN SUBBASIN NAME ISO_TIME NATURE LAT LON WMO_WIND WMO_PRES WMO_AGENCY TRACK_TYPE DIST2LAND LANDFALL IFLAG USA_AGENCY USA_ATCF_ID USA_LAT USA_LON USA_RECORD USA_STATUS USA_WIND USA_PRES USA_SSHS USA_R34_NE USA_R34_SE USA_R34_SW USA_R34_NW USA_R50_NE USA_R50_SE USA_R50_SW USA_R50_NW USA_R64_NE USA_R64_SE USA_R64_SW USA_R64_NW USA_POCI USA_ROCI USA_RMW USA_EYE TOKYO_LAT TOKYO_LON TOKYO_GRADE TOKYO_WIND TOKYO_PRES TOKYO_R50_DIR TOKYO_R50_LONG TOKYO_R50_SHORT TOKYO_R30_DIR TOKYO_R30_LONG TOKYO_R30_SHORT TOKYO_LAND CMA_LAT CMA_LON CMA_CAT CMA_WIND CMA_PRES HKO_LAT HKO_LON HKO_CAT HKO_WIND HKO_PRES NEWDELHI_LAT NEWDELHI_LON NEWDELHI_GRADE NEWDELHI_WIND NEWDELHI_PRES NEWDELHI_CI NEWDELHI_DP NEWDELHI_POCI REUNION_LAT REUNION_LON REUNION_TYPE REUNION_WIND REUNION_PRES REUNION_TNUM REUNION_CI REUNION_RMW REUNION_R34_NE REUNION_R34_SE REUNION_R34_SW REUNION_R34_NW REUNION_R50_NE REUNION_R50_SE REUNION_R50_SW REUNION_R50_NW REUNION_R64_NE REUNION_R64_SE REUNION_R64_SW REUNION_R64_NW BOM_LAT BOM_LON BOM_TYPE BOM_WIND BOM_PRES BOM_TNUM BOM_CI BOM_RMW BOM_R34_NE BOM_R34_SE BOM_R34_SW BOM_R34_NW BOM_R50_NE BOM_R50_SE BOM_R50_SW BOM_R50_NW BOM_R64_NE BOM_R64_SE BOM_R64_SW BOM_R64_NW BOM_ROCI BOM_POCI BOM_EYE BOM_POS_METHOD BOM_PRES_METHOD NADI_LAT NADI_LON NADI_CAT NADI_WIND NADI_PRES WELLINGTON_LAT WELLINGTON_LON WELLINGTON_WIND WELLINGTON_PRES DS824_LAT DS824_LON DS824_STAGE DS824_WIND DS824_PRES TD9636_LAT TD9636_LON TD9636_STAGE TD9636_WIND TD9636_PRES TD9635_LAT TD9635_LON TD9635_WIND TD9635_PRES TD9635_ROCI NEUMANN_LAT NEUMANN_LON NEUMANN_CLASS NEUMANN_WIND NEUMANN_PRES MLC_LAT MLC_LON MLC_CLASS MLC_WIND MLC_PRES USA_GUST BOM_GUST BOM_GUST_PER REUNION_GUST REUNION_GUST_PER USA_SEAHGT USA_SEARAD_NE USA_SEARAD_SE USA_SEARAD_SW USA_SEARAD_NW STORM_SPEED STORM_DIR
1863011S12055 1863 2 SI MM NOT_NAMED 1863-01-11 06:00:00 NR -11.6000 54.7000 main 544 525 __________O___ -1 -11.6000 54.7000 7 6 201
1863011S12055 1863 2 SI MM NOT_NAMED 1863-01-11 09:00:00 NR -11.8922 54.5846 main 525 506 __________P___ -1 -11.8922 54.5846 7 6 201
1863011S12055 1863 2 SI MM NOT_NAMED 1863-01-11 12:00:00 NR -12.1876 54.4752 main 506 487 __________P___ -1 -12.1876 54.4752 7 6 199
1863011S12055 1863 2 SI MM NOT_NAMED 1863-01-11 15:00:00 NR -12.4891 54.3783 main 487 468 __________P___ -1 -12.4891 54.3783 7 6 196
1863011S12055 1863 2 SI MM NOT_NAMED 1863-01-11 18:00:00 NR -12.8000 54.3000 main 468 450 __________O___ -1 -12.8000 54.3000 7 7 192
1863011S12055 1863 2 SI MM NOT_NAMED 1863-01-11 21:00:00 NR -13.1218 54.2453 main 450 445 __________P___ -1 -13.1218 54.2453 7 7 188
1863011S12055 1863 2 SI MM NOT_NAMED 1863-01-12 00:00:00 NR -13.4500 54.2124 main 445 428 __________P___ -1 -13.4500 54.2124 7 7 183
1863011S12055 1863 2 SI MM NOT_NAMED 1863-01-12 03:00:00 NR -13.7781 54.1984 main 428 416 __________P___ -1 -13.7781 54.1984 7 7 181
1863011S12055 1863 2 SI MM NOT_NAMED 1863-01-12 06:00:00 NR -14.1000 54.2000 main 416 407 __________O___ -1 -14.1000 54.2000 7 6 0
1863011S12055 1863 2 SI MM NOT_NAMED 1863-01-12 09:00:00 NR -14.4153 54.2065 main 407 401 __________P___ -1 -14.4153 54.2065 7 6 178
1863011S12055 1863 2 SI MM NOT_NAMED 1863-01-12 12:00:00 NR -14.7225 54.2275 main 401 398 __________P___ -1 -14.7225 54.2275 7 6 175
1863011S12055 1863 2 SI MM NOT_NAMED 1863-01-12 15:00:00 NR -15.0184 54.2597 main 408 407 __________P___ -1 -15.0184 54.2597 7 6 173
1863011S12055 1863 2 SI MM NOT_NAMED 1863-01-12 18:00:00 NR -15.3000 54.3000 main 407 407 __________O___ -1 -15.3000 54.3000 7 5 174
1863011S12055 1863 2 SI MM NOT_NAMED 1863-01-12 21:00:00 NR -15.5359 54.3228 main 407 407 __________P___ -1 -15.5359 54.3228 7 5 172
1863011S12055 1863 2 SI MM NOT_NAMED 1863-01-13 00:00:00 NR -15.7624 54.3555 main 420 420 __________P___ -1 -15.7624 54.3555 7 5 170
1863011S12055 1863 2 SI MM NOT_NAMED 1863-01-13 03:00:00 NR -16.0077 54.4105 main 422 422 __________P___ -1 -16.0077 54.4105 7 6 165
1863011S12055 1863 2 SI MM NOT_NAMED 1863-01-13 06:00:00 NR -16.3000 54.5000 main 439 439 __________O___ -1 -16.3000 54.5000 7 7 162
1863011S12055 1863 2 SI MM NOT_NAMED 1863-01-13 09:00:00 NR -16.6992 54.6467 main 461 439 __________P___ -1 -16.6992 54.6467 7 9 160
1863011S12055 1863 2 SI MM NOT_NAMED 1863-01-13 12:00:00 NR -17.1427 54.8268 main 439 381 __________P___ -1 -17.1427 54.8268 7 10 158
1863011S12055 1863 2 SI MM NOT_NAMED 1863-01-13 15:00:00 NR -17.5898 55.0186 main 381 335 __________P___ -1 -17.5898 55.0186 7 9 157
1863011S12055 1863 2 SI MM NOT_NAMED 1863-01-13 18:00:00 NR -18.0000 55.2000 main 335 302 __________O___ -1 -18.0000 55.2000 7 8 160
1863011S12055 1863 2 SI MM NOT_NAMED 1863-01-13 21:00:00 NR -18.2974 55.2959 main 302 279 __________P___ -1 -18.2974 55.2959 7 6 162
1863011S12055 1863 2 SI MM NOT_NAMED 1863-01-14 00:00:00 NR -18.5568 55.3843 main 268 246 __________P___ -1 -18.5568 55.3843 7 6 159
1863011S12055 1863 2 SI MM NOT_NAMED 1863-01-14 03:00:00 NR -18.8129 55.5055 main 246 212 __________P___ -1 -18.8129 55.5055 7 6 151
1863011S12055 1863 2 SI MM NOT_NAMED 1863-01-14 06:00:00 NR -19.1000 55.7000 main 212 170 __________O___ -1 -19.1000 55.7000 7 8 144
1863011S12055 1863 2 SI MM NOT_NAMED 1863-01-14 09:00:00 NR -19.4764 56.0082 main 170 113 __________P___ -1 -19.4764 56.0082 7 10 140
1863011S12055 1863 2 SI MM NOT_NAMED 1863-01-14 12:00:00 NR -19.8852 56.3944 main 113 56 __________P___ -1 -19.8852 56.3944 7 11 137
1863011S12055 1863 2 SI MM NOT_NAMED 1863-01-14 15:00:00 NR -20.3013 56.8334 main 56 15 __________P___ -1 -20.3013 56.8334 7 12 134
1863011S12055 1863 2 SI MM NOT_NAMED 1863-01-14 18:00:00 NR -20.7000 57.3000 main 22 22 __________O___ -1 -20.7000 57.3000 7 12 131
1863011S12055 1863 2 SI MM NOT_NAMED 1863-01-14 21:00:00 NR -21.0835 57.7854 main 67 67 __________P___ -1 -21.0835 57.7854 7 12 129
1863011S12055 1863 2 SI MM NOT_NAMED 1863-01-15 00:00:00 NR -21.4406 58.2866 main 118 118 __________P___ -1 -21.4406 58.2866 7 11 126
1863011S12055 1863 2 SI MM NOT_NAMED 1863-01-15 03:00:00 NR -21.7523 58.7696 main 184 184 __________P___ -1 -21.7523 58.7696 7 10 123
1863011S12055 1863 2 SI MM NOT_NAMED 1863-01-15 06:00:00 NR -22.0000 59.2000 main 228 228 __________O___ -1 -22.0000 59.2000 7 8 121
1863011S12055 1863 2 SI MM NOT_NAMED 1863-01-15 09:00:00 NR -22.1637 59.5216 main 266 266 __________P___ -1 -22.1637 59.5216 7 6 116
1863011S12055 1863 2 SI MM NOT_NAMED 1863-01-15 12:00:00 NR -22.2663 59.7891 main 296 296 __________P___ -1 -22.2663 59.7891 7 5 110
1863011S12055 1863 2 SI MM NOT_NAMED 1863-01-15 15:00:00 NR -22.3357 60.0369 main 311 311 __________P___ -1 -22.3357 60.0369 7 5 106
1863011S12055 1863 2 SI MM NOT_NAMED 1863-01-15 18:00:00 NR -22.4000 60.3000 main 342 342 __________O___ -1 -22.4000 60.3000 7 5 105
1863011S12055 1863 2 SI MM NOT_NAMED 1863-01-15 21:00:00 NR -22.4811 60.6054 main 374 374 __________P___ -1 -22.4811 60.6054 7 6 107
1863011S12055 1863 2 SI MM NOT_NAMED 1863-01-16 00:00:00 NR -22.5788 60.9488 main 405 405 __________P___ -1 -22.5788 60.9488 7 7 107
1863011S12055 1863 2 SI MM NOT_NAMED 1863-01-16 03:00:00 NR -22.6870 61.3178 main 446 446 __________P___ -1 -22.6870 61.3178 7 7 108
1863011S12055 1863 2 SI MM NOT_NAMED 1863-01-16 06:00:00 NR -22.8000 61.7000 main 486 __________O___ -1 -22.8000 61.7000 7 7 108

IBTrACS Databaseについて

本データベースは、米国NOAAが公開する1842年以降の世界の熱帯低気圧のベストトラックデータアーカイブInternational Best Track Archive for Climate Stewardship (IBTrACS)を、ウェブで閲覧しやすい形式に変換したものです。

最終更新日:2021-12-03